sensor_id;sensor_type;location;lat;lon;timestamp;P1;durP1;ratioP1;P2;durP2;ratioP2
151;SDS011;68;48.792;9.164;2022-09-09T00:01:42;6.50;;;2.47;;
151;SDS011;68;48.792;9.164;2022-09-09T00:04:17;6.18;;;2.58;;
151;SDS011;68;48.792;9.164;2022-09-09T00:06:55;4.00;;;2.53;;
151;SDS011;68;48.792;9.164;2022-09-09T00:09:29;3.57;;;2.60;;
151;SDS011;68;48.792;9.164;2022-09-09T00:12:00;4.88;;;2.80;;
151;SDS011;68;48.792;9.164;2022-09-09T00:14:34;3.10;;;2.27;;
151;SDS011;68;48.792;9.164;2022-09-09T00:17:09;3.80;;;2.40;;
151;SDS011;68;48.792;9.164;2022-09-09T00:19:40;3.47;;;2.57;;
151;SDS011;68;48.792;9.164;2022-09-09T00:22:16;7.40;;;2.37;;
151;SDS011;68;48.792;9.164;2022-09-09T00:24:47;3.17;;;2.47;;
151;SDS011;68;48.792;9.164;2022-09-09T00:27:21;6.80;;;2.67;;
151;SDS011;68;48.792;9.164;2022-09-09T00:29:54;2.93;;;2.47;;
151;SDS011;68;48.792;9.164;2022-09-09T00:32:24;4.20;;;2.40;;
151;SDS011;68;48.792;9.164;2022-09-09T00:34:56;6.90;;;2.73;;
151;SDS011;68;48.792;9.164;2022-09-09T00:37:26;6.00;;;2.60;;
151;SDS011;68;48.792;9.164;2022-09-09T00:39:57;3.28;;;2.55;;
151;SDS011;68;48.792;9.164;2022-09-09T00:42:32;4.00;;;2.30;;
151;SDS011;68;48.792;9.164;2022-09-09T00:45:10;4.13;;;2.50;;
151;SDS011;68;48.792;9.164;2022-09-09T00:47:46;6.38;;;2.70;;
151;SDS011;68;48.792;9.164;2022-09-09T00:50:26;3.03;;;2.40;;
151;SDS011;68;48.792;9.164;2022-09-09T00:53:10;3.30;;;2.40;;
151;SDS011;68;48.792;9.164;2022-09-09T00:55:48;3.37;;;2.20;;
151;SDS011;68;48.792;9.164;2022-09-09T00:58:21;3.97;;;2.33;;
151;SDS011;68;48.792;9.164;2022-09-09T01:00:49;2.37;;;2.23;;
151;SDS011;68;48.792;9.164;2022-09-09T01:03:20;6.70;;;2.40;;
151;SDS011;68;48.792;9.164;2022-09-09T01:05:55;2.97;;;2.37;;
151;SDS011;68;48.792;9.164;2022-09-09T01:08:35;6.00;;;2.73;;
151;SDS011;68;48.792;9.164;2022-09-09T01:11:25;2.77;;;2.40;;
151;SDS011;68;48.792;9.164;2022-09-09T01:14:00;5.73;;;2.50;;
151;SDS011;68;48.792;9.164;2022-09-09T01:16:36;3.40;;;2.43;;
151;SDS011;68;48.792;9.164;2022-09-09T01:19:03;3.90;;;2.67;;
151;SDS011;68;48.792;9.164;2022-09-09T01:21:35;3.70;;;2.30;;
151;SDS011;68;48.792;9.164;2022-09-09T01:24:15;4.20;;;2.53;;
151;SDS011;68;48.792;9.164;2022-09-09T01:26:52;6.20;;;2.33;;
151;SDS011;68;48.792;9.164;2022-09-09T01:29:22;4.57;;;2.87;;
151;SDS011;68;48.792;9.164;2022-09-09T01:31:52;3.03;;;2.20;;
151;SDS011;68;48.792;9.164;2022-09-09T01:34:21;5.03;;;2.50;;
151;SDS011;68;48.792;9.164;2022-09-09T01:36:49;5.23;;;2.40;;
151;SDS011;68;48.792;9.164;2022-09-09T01:39:22;3.60;;;2.60;;
151;SDS011;68;48.792;9.164;2022-09-09T01:41:49;7.60;;;2.60;;
151;SDS011;68;48.792;9.164;2022-09-09T01:44:17;3.03;;;2.17;;
151;SDS011;68;48.792;9.164;2022-09-09T01:46:45;2.83;;;2.50;;
151;SDS011;68;48.792;9.164;2022-09-09T01:49:12;5.57;;;2.43;;
151;SDS011;68;48.792;9.164;2022-09-09T01:51:39;3.40;;;2.37;;
151;SDS011;68;48.792;9.164;2022-09-09T01:54:08;2.77;;;2.37;;
151;SDS011;68;48.792;9.164;2022-09-09T01:56:37;3.70;;;2.50;;
151;SDS011;68;48.792;9.164;2022-09-09T01:59:21;3.00;;;2.10;;
151;SDS011;68;48.792;9.164;2022-09-09T02:02:02;3.73;;;2.40;;
151;SDS011;68;48.792;9.164;2022-09-09T02:04:38;5.20;;;2.33;;
151;SDS011;68;48.792;9.164;2022-09-09T02:07:10;4.47;;;2.53;;
151;SDS011;68;48.792;9.164;2022-09-09T02:09:55;2.83;;;2.28;;
151;SDS011;68;48.792;9.164;2022-09-09T02:12:26;6.13;;;2.40;;
151;SDS011;68;48.792;9.164;2022-09-09T02:14:58;5.07;;;2.50;;
151;SDS011;68;48.792;9.164;2022-09-09T02:17:30;2.80;;;2.57;;
151;SDS011;68;48.792;9.164;2022-09-09T02:20:02;2.60;;;2.40;;
151;SDS011;68;48.792;9.164;2022-09-09T02:22:32;2.80;;;2.37;;
151;SDS011;68;48.792;9.164;2022-09-09T02:25:00;4.68;;;2.80;;
151;SDS011;68;48.792;9.164;2022-09-09T02:27:30;4.10;;;2.47;;
151;SDS011;68;48.792;9.164;2022-09-09T02:29:58;4.03;;;2.10;;
151;SDS011;68;48.792;9.164;2022-09-09T02:32:27;5.67;;;2.67;;
151;SDS011;68;48.792;9.164;2022-09-09T02:34:59;4.27;;;2.40;;
151;SDS011;68;48.792;9.164;2022-09-09T02:37:31;3.08;;;2.30;;
151;SDS011;68;48.792;9.164;2022-09-09T02:40:02;4.33;;;2.60;;
151;SDS011;68;48.792;9.164;2022-09-09T02:42:29;4.90;;;2.33;;
151;SDS011;68;48.792;9.164;2022-09-09T02:44:56;2.95;;;2.00;;
151;SDS011;68;48.792;9.164;2022-09-09T02:47:26;3.67;;;2.13;;
151;SDS011;68;48.792;9.164;2022-09-09T02:50:02;3.43;;;2.20;;
151;SDS011;68;48.792;9.164;2022-09-09T02:52:38;3.97;;;2.20;;
151;SDS011;68;48.792;9.164;2022-09-09T02:55:16;3.63;;;2.40;;
151;SDS011;68;48.792;9.164;2022-09-09T02:57:46;2.87;;;2.20;;
151;SDS011;68;48.792;9.164;2022-09-09T03:00:16;3.97;;;2.07;;
151;SDS011;68;48.792;9.164;2022-09-09T03:02:49;5.03;;;2.73;;
151;SDS011;68;48.792;9.164;2022-09-09T03:05:16;3.47;;;2.25;;
151;SDS011;68;48.792;9.164;2022-09-09T03:07:43;3.50;;;2.15;;
151;SDS011;68;48.792;9.164;2022-09-09T03:10:09;13.35;;;3.22;;
151;SDS011;68;48.792;9.164;2022-09-09T03:12:36;4.10;;;2.40;;
151;SDS011;68;48.792;9.164;2022-09-09T03:15:04;7.22;;;2.50;;
151;SDS011;68;48.792;9.164;2022-09-09T03:17:32;4.40;;;2.40;;
151;SDS011;68;48.792;9.164;2022-09-09T03:19:59;3.92;;;2.50;;
151;SDS011;68;48.792;9.164;2022-09-09T03:22:26;2.80;;;2.60;;
151;SDS011;68;48.792;9.164;2022-09-09T03:24:53;5.20;;;2.90;;
151;SDS011;68;48.792;9.164;2022-09-09T03:27:20;6.50;;;2.70;;
151;SDS011;68;48.792;9.164;2022-09-09T03:29:46;3.95;;;2.30;;
151;SDS011;68;48.792;9.164;2022-09-09T03:32:16;4.40;;;2.47;;
151;SDS011;68;48.792;9.164;2022-09-09T03:34:44;4.60;;;2.40;;
151;SDS011;68;48.792;9.164;2022-09-09T03:37:14;4.85;;;2.00;;
151;SDS011;68;48.792;9.164;2022-09-09T03:39:44;5.35;;;2.65;;
151;SDS011;68;48.792;9.164;2022-09-09T03:42:12;6.60;;;2.90;;
151;SDS011;68;48.792;9.164;2022-09-09T03:44:43;2.50;;;2.30;;
151;SDS011;68;48.792;9.164;2022-09-09T03:47:10;3.37;;;2.10;;
151;SDS011;68;48.792;9.164;2022-09-09T03:49:36;6.43;;;2.40;;
151;SDS011;68;48.792;9.164;2022-09-09T03:52:05;3.22;;;2.17;;
151;SDS011;68;48.792;9.164;2022-09-09T03:54:31;2.58;;;2.22;;
151;SDS011;68;48.792;9.164;2022-09-09T03:56:59;3.85;;;2.42;;
151;SDS011;68;48.792;9.164;2022-09-09T03:59:25;5.22;;;2.17;;
151;SDS011;68;48.792;9.164;2022-09-09T04:01:52;4.67;;;2.30;;
151;SDS011;68;48.792;9.164;2022-09-09T04:04:19;4.55;;;2.33;;
151;SDS011;68;48.792;9.164;2022-09-09T04:06:47;7.20;;;2.20;;
151;SDS011;68;48.792;9.164;2022-09-09T04:09:16;4.93;;;2.67;;
151;SDS011;68;48.792;9.164;2022-09-09T04:11:43;2.50;;;2.13;;
151;SDS011;68;48.792;9.164;2022-09-09T04:14:11;3.28;;;2.15;;
151;SDS011;68;48.792;9.164;2022-09-09T04:16:38;3.90;;;2.58;;
151;SDS011;68;48.792;9.164;2022-09-09T04:19:10;4.65;;;2.40;;
151;SDS011;68;48.792;9.164;2022-09-09T04:21:38;4.70;;;2.40;;
151;SDS011;68;48.792;9.164;2022-09-09T04:24:06;2.70;;;2.00;;
151;SDS011;68;48.792;9.164;2022-09-09T04:26:34;2.53;;;2.08;;
151;SDS011;68;48.792;9.164;2022-09-09T04:29:02;2.20;;;2.05;;
151;SDS011;68;48.792;9.164;2022-09-09T04:31:30;3.17;;;2.50;;
151;SDS011;68;48.792;9.164;2022-09-09T04:33:57;2.92;;;2.30;;
151;SDS011;68;48.792;9.164;2022-09-09T04:36:27;6.18;;;2.85;;
151;SDS011;68;48.792;9.164;2022-09-09T04:38:54;2.30;;;2.10;;
151;SDS011;68;48.792;9.164;2022-09-09T04:41:20;2.88;;;2.38;;
151;SDS011;68;48.792;9.164;2022-09-09T04:43:48;5.90;;;2.50;;
151;SDS011;68;48.792;9.164;2022-09-09T04:46:18;4.75;;;2.30;;
151;SDS011;68;48.792;9.164;2022-09-09T04:48:45;4.25;;;2.50;;
151;SDS011;68;48.792;9.164;2022-09-09T04:51:13;2.90;;;2.35;;
151;SDS011;68;48.792;9.164;2022-09-09T04:53:40;3.05;;;2.67;;
151;SDS011;68;48.792;9.164;2022-09-09T04:56:08;4.55;;;2.10;;
151;SDS011;68;48.792;9.164;2022-09-09T04:58:36;4.00;;;2.40;;
151;SDS011;68;48.792;9.164;2022-09-09T05:01:08;3.67;;;2.35;;
151;SDS011;68;48.792;9.164;2022-09-09T05:03:36;4.72;;;2.72;;
151;SDS011;68;48.792;9.164;2022-09-09T05:06:04;6.35;;;2.50;;
151;SDS011;68;48.792;9.164;2022-09-09T05:08:33;4.15;;;2.20;;
151;SDS011;68;48.792;9.164;2022-09-09T05:11:00;4.60;;;2.35;;
151;SDS011;68;48.792;9.164;2022-09-09T05:13:27;6.03;;;2.58;;
151;SDS011;68;48.792;9.164;2022-09-09T05:15:56;4.85;;;2.75;;
151;SDS011;68;48.792;9.164;2022-09-09T05:18:24;4.20;;;2.75;;
151;SDS011;68;48.792;9.164;2022-09-09T05:20:51;6.20;;;2.80;;
151;SDS011;68;48.792;9.164;2022-09-09T05:23:18;4.83;;;2.83;;
151;SDS011;68;48.792;9.164;2022-09-09T05:25:53;4.25;;;2.97;;
151;SDS011;68;48.792;9.164;2022-09-09T05:28:22;3.42;;;2.50;;
151;SDS011;68;48.792;9.164;2022-09-09T05:30:54;4.78;;;2.60;;
151;SDS011;68;48.792;9.164;2022-09-09T05:33:24;6.03;;;2.30;;
151;SDS011;68;48.792;9.164;2022-09-09T05:35:55;5.15;;;2.85;;
151;SDS011;68;48.792;9.164;2022-09-09T05:38:23;5.88;;;2.38;;
151;SDS011;68;48.792;9.164;2022-09-09T05:40:50;6.78;;;3.08;;
151;SDS011;68;48.792;9.164;2022-09-09T05:43:17;4.75;;;2.53;;
151;SDS011;68;48.792;9.164;2022-09-09T05:45:44;8.98;;;2.60;;
151;SDS011;68;48.792;9.164;2022-09-09T05:48:12;3.15;;;2.35;;
151;SDS011;68;48.792;9.164;2022-09-09T05:50:41;5.60;;;2.47;;
151;SDS011;68;48.792;9.164;2022-09-09T05:53:08;2.77;;;2.30;;
151;SDS011;68;48.792;9.164;2022-09-09T05:55:36;3.75;;;2.50;;
151;SDS011;68;48.792;9.164;2022-09-09T05:58:03;6.27;;;2.90;;
151;SDS011;68;48.792;9.164;2022-09-09T06:00:30;2.93;;;2.57;;
151;SDS011;68;48.792;9.164;2022-09-09T06:02:57;2.97;;;2.50;;
151;SDS011;68;48.792;9.164;2022-09-09T06:05:24;2.93;;;2.40;;
151;SDS011;68;48.792;9.164;2022-09-09T06:07:53;12.40;;;3.40;;
151;SDS011;68;48.792;9.164;2022-09-09T06:10:20;8.90;;;2.83;;
151;SDS011;68;48.792;9.164;2022-09-09T06:12:47;7.85;;;2.70;;
151;SDS011;68;48.792;9.164;2022-09-09T06:15:14;8.65;;;2.53;;
151;SDS011;68;48.792;9.164;2022-09-09T06:17:44;4.88;;;2.65;;
151;SDS011;68;48.792;9.164;2022-09-09T06:20:11;3.20;;;2.47;;
151;SDS011;68;48.792;9.164;2022-09-09T06:22:39;4.73;;;2.60;;
151;SDS011;68;48.792;9.164;2022-09-09T06:25:08;7.63;;;2.53;;
151;SDS011;68;48.792;9.164;2022-09-09T06:27:35;4.60;;;2.30;;
151;SDS011;68;48.792;9.164;2022-09-09T06:30:04;10.93;;;2.87;;
151;SDS011;68;48.792;9.164;2022-09-09T06:32:32;9.95;;;2.60;;
151;SDS011;68;48.792;9.164;2022-09-09T06:35:01;4.57;;;2.50;;
151;SDS011;68;48.792;9.164;2022-09-09T06:37:28;4.03;;;2.30;;
151;SDS011;68;48.792;9.164;2022-09-09T06:39:55;5.63;;;2.10;;
151;SDS011;68;48.792;9.164;2022-09-09T06:42:23;6.33;;;2.50;;
151;SDS011;68;48.792;9.164;2022-09-09T06:44:52;7.60;;;2.93;;
151;SDS011;68;48.792;9.164;2022-09-09T06:47:18;4.90;;;2.33;;
151;SDS011;68;48.792;9.164;2022-09-09T06:49:45;4.80;;;2.50;;
151;SDS011;68;48.792;9.164;2022-09-09T06:52:12;4.18;;;2.20;;
151;SDS011;68;48.792;9.164;2022-09-09T06:54:39;10.97;;;2.57;;
151;SDS011;68;48.792;9.164;2022-09-09T06:57:05;9.20;;;2.50;;
151;SDS011;68;48.792;9.164;2022-09-09T06:59:34;3.37;;;2.30;;
151;SDS011;68;48.792;9.164;2022-09-09T07:02:01;4.87;;;2.60;;
151;SDS011;68;48.792;9.164;2022-09-09T07:04:30;4.80;;;2.63;;
151;SDS011;68;48.792;9.164;2022-09-09T07:06:57;10.40;;;2.70;;
151;SDS011;68;48.792;9.164;2022-09-09T07:09:24;3.80;;;2.40;;
151;SDS011;68;48.792;9.164;2022-09-09T07:11:52;4.73;;;2.70;;
151;SDS011;68;48.792;9.164;2022-09-09T07:14:19;3.80;;;2.50;;
151;SDS011;68;48.792;9.164;2022-09-09T07:16:48;5.73;;;2.60;;
151;SDS011;68;48.792;9.164;2022-09-09T07:19:15;8.90;;;2.90;;
151;SDS011;68;48.792;9.164;2022-09-09T07:21:42;5.33;;;2.50;;
151;SDS011;68;48.792;9.164;2022-09-09T07:24:09;6.40;;;3.20;;
151;SDS011;68;48.792;9.164;2022-09-09T07:26:36;3.30;;;2.30;;
151;SDS011;68;48.792;9.164;2022-09-09T07:29:04;4.70;;;2.57;;
151;SDS011;68;48.792;9.164;2022-09-09T07:31:31;2.63;;;2.10;;
151;SDS011;68;48.792;9.164;2022-09-09T07:34:01;8.10;;;2.70;;
151;SDS011;68;48.792;9.164;2022-09-09T07:36:29;4.10;;;2.40;;
151;SDS011;68;48.792;9.164;2022-09-09T07:38:58;4.70;;;3.03;;
151;SDS011;68;48.792;9.164;2022-09-09T07:41:27;4.67;;;2.50;;
151;SDS011;68;48.792;9.164;2022-09-09T07:43:57;4.90;;;2.50;;
151;SDS011;68;48.792;9.164;2022-09-09T07:46:24;3.53;;;2.53;;
151;SDS011;68;48.792;9.164;2022-09-09T07:48:53;4.57;;;2.60;;
151;SDS011;68;48.792;9.164;2022-09-09T07:51:23;13.00;;;2.63;;
151;SDS011;68;48.792;9.164;2022-09-09T07:53:51;4.13;;;2.33;;
151;SDS011;68;48.792;9.164;2022-09-09T07:56:19;5.97;;;2.47;;
151;SDS011;68;48.792;9.164;2022-09-09T07:58:47;4.77;;;2.40;;
151;SDS011;68;48.792;9.164;2022-09-09T08:01:15;5.37;;;2.23;;
151;SDS011;68;48.792;9.164;2022-09-09T08:03:44;4.53;;;2.20;;
151;SDS011;68;48.792;9.164;2022-09-09T08:06:11;3.43;;;2.30;;
151;SDS011;68;48.792;9.164;2022-09-09T08:08:40;5.07;;;2.50;;
151;SDS011;68;48.792;9.164;2022-09-09T08:11:09;4.90;;;2.43;;
151;SDS011;68;48.792;9.164;2022-09-09T08:13:38;9.93;;;2.63;;
151;SDS011;68;48.792;9.164;2022-09-09T08:16:06;4.57;;;2.10;;
151;SDS011;68;48.792;9.164;2022-09-09T08:18:34;2.67;;;2.07;;
151;SDS011;68;48.792;9.164;2022-09-09T08:21:04;8.03;;;2.43;;
151;SDS011;68;48.792;9.164;2022-09-09T08:23:36;5.80;;;2.13;;
151;SDS011;68;48.792;9.164;2022-09-09T08:26:09;3.60;;;2.23;;
151;SDS011;68;48.792;9.164;2022-09-09T08:28:37;7.43;;;2.00;;
151;SDS011;68;48.792;9.164;2022-09-09T08:31:05;5.10;;;2.63;;
151;SDS011;68;48.792;9.164;2022-09-09T08:33:44;7.90;;;2.73;;
151;SDS011;68;48.792;9.164;2022-09-09T08:36:12;3.03;;;2.27;;
151;SDS011;68;48.792;9.164;2022-09-09T08:38:41;5.80;;;2.23;;
151;SDS011;68;48.792;9.164;2022-09-09T08:41:21;3.90;;;2.30;;
151;SDS011;68;48.792;9.164;2022-09-09T08:44:06;7.70;;;2.50;;
151;SDS011;68;48.792;9.164;2022-09-09T08:46:38;2.90;;;1.80;;
151;SDS011;68;48.792;9.164;2022-09-09T08:49:31;5.57;;;2.53;;
151;SDS011;68;48.792;9.164;2022-09-09T08:52:16;8.73;;;2.40;;
151;SDS011;68;48.792;9.164;2022-09-09T08:54:45;5.20;;;2.00;;
151;SDS011;68;48.792;9.164;2022-09-09T08:57:21;3.80;;;2.00;;
151;SDS011;68;48.792;9.164;2022-09-09T08:59:52;4.30;;;2.17;;
151;SDS011;68;48.792;9.164;2022-09-09T09:02:21;9.43;;;2.13;;
151;SDS011;68;48.792;9.164;2022-09-09T09:04:56;5.23;;;2.20;;
151;SDS011;68;48.792;9.164;2022-09-09T09:07:36;5.43;;;2.17;;
151;SDS011;68;48.792;9.164;2022-09-09T09:10:16;18.40;;;3.53;;
151;SDS011;68;48.792;9.164;2022-09-09T09:12:56;10.23;;;2.27;;
151;SDS011;68;48.792;9.164;2022-09-09T09:15:27;4.00;;;2.00;;
151;SDS011;68;48.792;9.164;2022-09-09T09:17:57;6.73;;;2.20;;
151;SDS011;68;48.792;9.164;2022-09-09T09:20:27;4.97;;;1.80;;
151;SDS011;68;48.792;9.164;2022-09-09T09:23:04;5.63;;;2.27;;
151;SDS011;68;48.792;9.164;2022-09-09T09:25:33;2.97;;;2.07;;
151;SDS011;68;48.792;9.164;2022-09-09T09:28:10;5.80;;;2.43;;
151;SDS011;68;48.792;9.164;2022-09-09T09:30:44;5.30;;;2.87;;
151;SDS011;68;48.792;9.164;2022-09-09T09:33:18;6.47;;;2.30;;
151;SDS011;68;48.792;9.164;2022-09-09T09:35:48;6.00;;;2.47;;
151;SDS011;68;48.792;9.164;2022-09-09T09:38:17;2.93;;;2.00;;
151;SDS011;68;48.792;9.164;2022-09-09T09:40:48;2.87;;;1.70;;
151;SDS011;68;48.792;9.164;2022-09-09T09:43:19;5.83;;;2.23;;
151;SDS011;68;48.792;9.164;2022-09-09T09:45:49;2.50;;;1.73;;
151;SDS011;68;48.792;9.164;2022-09-09T09:48:16;5.30;;;2.40;;
151;SDS011;68;48.792;9.164;2022-09-09T09:50:46;3.20;;;2.23;;
151;SDS011;68;48.792;9.164;2022-09-09T09:53:19;3.77;;;1.80;;
151;SDS011;68;48.792;9.164;2022-09-09T09:55:50;3.13;;;1.80;;
151;SDS011;68;48.792;9.164;2022-09-09T09:58:22;3.97;;;1.73;;
151;SDS011;68;48.792;9.164;2022-09-09T10:00:51;4.07;;;1.67;;
151;SDS011;68;48.792;9.164;2022-09-09T10:03:23;3.77;;;1.80;;
151;SDS011;68;48.792;9.164;2022-09-09T10:05:52;4.97;;;1.90;;
151;SDS011;68;48.792;9.164;2022-09-09T10:08:19;5.60;;;1.90;;
151;SDS011;68;48.792;9.164;2022-09-09T10:10:52;4.53;;;2.13;;
151;SDS011;68;48.792;9.164;2022-09-09T10:13:30;6.40;;;2.47;;
151;SDS011;68;48.792;9.164;2022-09-09T10:16:09;4.77;;;1.93;;
151;SDS011;68;48.792;9.164;2022-09-09T10:18:52;2.80;;;1.80;;
151;SDS011;68;48.792;9.164;2022-09-09T10:21:38;2.60;;;1.80;;
151;SDS011;68;48.792;9.164;2022-09-09T10:24:32;3.10;;;2.10;;
151;SDS011;68;48.792;9.164;2022-09-09T10:27:20;5.40;;;2.30;;
151;SDS011;68;48.792;9.164;2022-09-09T10:30:00;4.40;;;2.10;;
151;SDS011;68;48.792;9.164;2022-09-09T10:32:38;14.90;;;2.50;;
151;SDS011;68;48.792;9.164;2022-09-09T10:35:12;6.60;;;2.37;;
151;SDS011;68;48.792;9.164;2022-09-09T10:37:51;3.47;;;2.10;;
151;SDS011;68;48.792;9.164;2022-09-09T10:40:28;3.13;;;2.17;;
151;SDS011;68;48.792;9.164;2022-09-09T10:43:01;4.57;;;2.37;;
151;SDS011;68;48.792;9.164;2022-09-09T10:45:38;4.10;;;2.07;;
151;SDS011;68;48.792;9.164;2022-09-09T10:48:21;4.77;;;2.40;;
151;SDS011;68;48.792;9.164;2022-09-09T10:51:02;4.23;;;2.00;;
151;SDS011;68;48.792;9.164;2022-09-09T10:53:47;5.77;;;2.50;;
151;SDS011;68;48.792;9.164;2022-09-09T10:56:24;3.70;;;2.30;;
151;SDS011;68;48.792;9.164;2022-09-09T10:58:53;7.10;;;2.30;;
151;SDS011;68;48.792;9.164;2022-09-09T11:01:26;7.70;;;2.40;;
151;SDS011;68;48.792;9.164;2022-09-09T11:03:57;13.00;;;2.30;;
151;SDS011;68;48.792;9.164;2022-09-09T11:06:30;3.97;;;1.90;;
151;SDS011;68;48.792;9.164;2022-09-09T11:09:02;3.37;;;2.30;;
151;SDS011;68;48.792;9.164;2022-09-09T11:11:32;3.90;;;2.33;;
151;SDS011;68;48.792;9.164;2022-09-09T11:14:03;3.80;;;2.03;;
151;SDS011;68;48.792;9.164;2022-09-09T11:16:38;2.97;;;2.03;;
151;SDS011;68;48.792;9.164;2022-09-09T11:19:11;4.53;;;2.03;;
151;SDS011;68;48.792;9.164;2022-09-09T11:21:44;2.83;;;1.97;;
151;SDS011;68;48.792;9.164;2022-09-09T11:24:14;5.10;;;2.20;;
151;SDS011;68;48.792;9.164;2022-09-09T11:26:47;4.30;;;1.60;;
151;SDS011;68;48.792;9.164;2022-09-09T11:29:25;5.13;;;1.93;;
151;SDS011;68;48.792;9.164;2022-09-09T11:32:09;5.77;;;2.43;;
151;SDS011;68;48.792;9.164;2022-09-09T11:34:50;2.47;;;1.60;;
151;SDS011;68;48.792;9.164;2022-09-09T11:40:19;2.30;;;1.87;;
151;SDS011;68;48.792;9.164;2022-09-09T11:43:00;4.67;;;2.00;;
151;SDS011;68;48.792;9.164;2022-09-09T11:45:29;4.30;;;1.93;;
151;SDS011;68;48.792;9.164;2022-09-09T11:47:59;3.83;;;1.80;;
151;SDS011;68;48.792;9.164;2022-09-09T11:50:28;3.67;;;1.83;;
151;SDS011;68;48.792;9.164;2022-09-09T11:53:17;2.17;;;1.70;;
151;SDS011;68;48.792;9.164;2022-09-09T11:56:00;2.43;;;1.70;;
151;SDS011;68;48.792;9.164;2022-09-09T11:58:36;5.23;;;1.90;;
151;SDS011;68;48.792;9.164;2022-09-09T12:01:15;2.20;;;1.70;;
151;SDS011;68;48.792;9.164;2022-09-09T12:04:28;3.07;;;1.60;;
151;SDS011;68;48.792;9.164;2022-09-09T12:07:00;2.67;;;1.70;;
151;SDS011;68;48.792;9.164;2022-09-09T12:12:25;1.50;;;1.40;;
151;SDS011;68;48.792;9.164;2022-09-09T12:14:58;1.60;;;1.47;;
151;SDS011;68;48.792;9.164;2022-09-09T12:17:41;2.80;;;1.87;;
151;SDS011;68;48.792;9.164;2022-09-09T12:20:12;2.37;;;1.40;;
151;SDS011;68;48.792;9.164;2022-09-09T12:22:43;2.80;;;1.70;;
151;SDS011;68;48.792;9.164;2022-09-09T12:25:20;2.43;;;1.57;;
151;SDS011;68;48.792;9.164;2022-09-09T12:27:58;4.57;;;1.60;;
151;SDS011;68;48.792;9.164;2022-09-09T12:30:34;2.27;;;1.60;;
151;SDS011;68;48.792;9.164;2022-09-09T12:33:08;3.07;;;1.60;;
151;SDS011;68;48.792;9.164;2022-09-09T12:35:40;2.50;;;1.40;;
151;SDS011;68;48.792;9.164;2022-09-09T12:38:10;3.00;;;1.50;;
151;SDS011;68;48.792;9.164;2022-09-09T12:40:40;1.70;;;1.40;;
151;SDS011;68;48.792;9.164;2022-09-09T12:43:17;2.17;;;1.53;;
151;SDS011;68;48.792;9.164;2022-09-09T12:45:46;5.87;;;2.60;;
151;SDS011;68;48.792;9.164;2022-09-09T12:48:15;2.33;;;1.40;;
151;SDS011;68;48.792;9.164;2022-09-09T12:50:47;3.43;;;1.50;;
151;SDS011;68;48.792;9.164;2022-09-09T12:53:18;2.27;;;1.40;;
151;SDS011;68;48.792;9.164;2022-09-09T12:55:49;3.47;;;1.63;;
151;SDS011;68;48.792;9.164;2022-09-09T12:58:18;2.90;;;1.50;;
151;SDS011;68;48.792;9.164;2022-09-09T13:00:48;3.47;;;1.60;;
151;SDS011;68;48.792;9.164;2022-09-09T13:03:18;1.70;;;1.50;;
151;SDS011;68;48.792;9.164;2022-09-09T13:05:47;3.07;;;1.53;;
151;SDS011;68;48.792;9.164;2022-09-09T13:08:16;3.93;;;1.63;;
151;SDS011;68;48.792;9.164;2022-09-09T13:10:46;6.07;;;1.87;;
151;SDS011;68;48.792;9.164;2022-09-09T13:13:20;2.80;;;1.50;;
151;SDS011;68;48.792;9.164;2022-09-09T13:15:49;3.13;;;1.60;;
151;SDS011;68;48.792;9.164;2022-09-09T13:18:19;2.07;;;1.50;;
151;SDS011;68;48.792;9.164;2022-09-09T13:20:50;5.40;;;1.80;;
151;SDS011;68;48.792;9.164;2022-09-09T13:23:18;3.77;;;1.83;;
151;SDS011;68;48.792;9.164;2022-09-09T13:25:56;2.80;;;1.70;;
151;SDS011;68;48.792;9.164;2022-09-09T13:28:25;2.90;;;1.80;;
151;SDS011;68;48.792;9.164;2022-09-09T13:30:56;2.80;;;1.50;;
151;SDS011;68;48.792;9.164;2022-09-09T13:33:29;5.20;;;1.87;;
151;SDS011;68;48.792;9.164;2022-09-09T13:36:00;2.47;;;1.60;;
151;SDS011;68;48.792;9.164;2022-09-09T13:38:30;2.73;;;1.80;;
151;SDS011;68;48.792;9.164;2022-09-09T13:41:00;2.93;;;1.57;;
151;SDS011;68;48.792;9.164;2022-09-09T13:43:29;5.33;;;1.80;;
151;SDS011;68;48.792;9.164;2022-09-09T13:45:59;3.20;;;1.70;;
151;SDS011;68;48.792;9.164;2022-09-09T13:48:28;1.50;;;1.40;;
151;SDS011;68;48.792;9.164;2022-09-09T13:51:00;2.33;;;1.87;;
151;SDS011;68;48.792;9.164;2022-09-09T13:53:30;2.50;;;1.57;;
151;SDS011;68;48.792;9.164;2022-09-09T13:55:59;1.77;;;1.60;;
151;SDS011;68;48.792;9.164;2022-09-09T13:58:26;1.73;;;1.40;;
151;SDS011;68;48.792;9.164;2022-09-09T14:00:53;1.77;;;1.50;;
151;SDS011;68;48.792;9.164;2022-09-09T14:03:20;3.10;;;1.60;;
151;SDS011;68;48.792;9.164;2022-09-09T14:05:47;3.17;;;1.60;;
151;SDS011;68;48.792;9.164;2022-09-09T14:08:19;3.53;;;1.70;;
151;SDS011;68;48.792;9.164;2022-09-09T14:10:51;3.40;;;1.90;;
151;SDS011;68;48.792;9.164;2022-09-09T14:13:21;2.50;;;1.50;;
151;SDS011;68;48.792;9.164;2022-09-09T14:15:48;2.63;;;1.57;;
151;SDS011;68;48.792;9.164;2022-09-09T14:18:15;1.90;;;1.50;;
151;SDS011;68;48.792;9.164;2022-09-09T14:20:43;2.30;;;1.60;;
151;SDS011;68;48.792;9.164;2022-09-09T14:23:11;5.27;;;1.50;;
151;SDS011;68;48.792;9.164;2022-09-09T14:25:43;2.43;;;1.60;;
151;SDS011;68;48.792;9.164;2022-09-09T14:28:10;4.77;;;1.70;;
151;SDS011;68;48.792;9.164;2022-09-09T14:30:38;1.80;;;1.60;;
151;SDS011;68;48.792;9.164;2022-09-09T14:33:06;3.93;;;1.70;;
151;SDS011;68;48.792;9.164;2022-09-09T14:35:34;2.20;;;1.50;;
151;SDS011;68;48.792;9.164;2022-09-09T14:38:01;1.77;;;1.50;;
151;SDS011;68;48.792;9.164;2022-09-09T14:40:28;2.10;;;1.60;;
151;SDS011;68;48.792;9.164;2022-09-09T14:42:56;2.80;;;1.93;;
151;SDS011;68;48.792;9.164;2022-09-09T14:45:24;2.37;;;1.60;;
151;SDS011;68;48.792;9.164;2022-09-09T14:47:51;4.30;;;1.47;;
151;SDS011;68;48.792;9.164;2022-09-09T14:50:18;2.27;;;1.50;;
151;SDS011;68;48.792;9.164;2022-09-09T14:52:46;1.87;;;1.40;;
151;SDS011;68;48.792;9.164;2022-09-09T14:55:13;2.10;;;1.47;;
151;SDS011;68;48.792;9.164;2022-09-09T14:57:40;3.00;;;1.80;;
151;SDS011;68;48.792;9.164;2022-09-09T15:00:09;4.70;;;2.07;;
151;SDS011;68;48.792;9.164;2022-09-09T15:02:37;1.50;;;1.37;;
151;SDS011;68;48.792;9.164;2022-09-09T15:05:04;3.30;;;1.70;;
151;SDS011;68;48.792;9.164;2022-09-09T15:07:31;5.30;;;1.90;;
151;SDS011;68;48.792;9.164;2022-09-09T15:09:59;4.63;;;1.63;;
151;SDS011;68;48.792;9.164;2022-09-09T15:12:25;5.73;;;1.63;;
151;SDS011;68;48.792;9.164;2022-09-09T15:14:53;3.87;;;1.70;;
151;SDS011;68;48.792;9.164;2022-09-09T15:17:22;2.30;;;1.70;;
151;SDS011;68;48.792;9.164;2022-09-09T15:19:52;1.70;;;1.47;;
151;SDS011;68;48.792;9.164;2022-09-09T15:22:19;2.40;;;1.50;;
151;SDS011;68;48.792;9.164;2022-09-09T15:24:46;2.40;;;1.43;;
151;SDS011;68;48.792;9.164;2022-09-09T15:27:13;8.67;;;1.60;;
151;SDS011;68;48.792;9.164;2022-09-09T15:29:40;7.73;;;3.40;;
151;SDS011;68;48.792;9.164;2022-09-09T15:32:09;2.50;;;1.70;;
151;SDS011;68;48.792;9.164;2022-09-09T15:34:37;4.53;;;1.57;;
151;SDS011;68;48.792;9.164;2022-09-09T15:37:04;4.87;;;1.90;;
151;SDS011;68;48.792;9.164;2022-09-09T15:39:32;3.93;;;1.50;;
151;SDS011;68;48.792;9.164;2022-09-09T15:41:58;2.10;;;1.80;;
151;SDS011;68;48.792;9.164;2022-09-09T15:44:26;4.27;;;1.90;;
151;SDS011;68;48.792;9.164;2022-09-09T15:46:52;2.10;;;1.60;;
151;SDS011;68;48.792;9.164;2022-09-09T15:49:20;3.50;;;1.80;;
151;SDS011;68;48.792;9.164;2022-09-09T15:51:51;2.37;;;1.50;;
151;SDS011;68;48.792;9.164;2022-09-09T15:54:20;4.73;;;1.70;;
151;SDS011;68;48.792;9.164;2022-09-09T15:56:49;3.50;;;1.53;;
151;SDS011;68;48.792;9.164;2022-09-09T15:59:19;3.30;;;1.70;;
151;SDS011;68;48.792;9.164;2022-09-09T16:01:46;2.97;;;1.63;;
151;SDS011;68;48.792;9.164;2022-09-09T16:04:16;8.53;;;1.70;;
151;SDS011;68;48.792;9.164;2022-09-09T16:06:48;3.07;;;1.67;;
151;SDS011;68;48.792;9.164;2022-09-09T16:09:16;5.20;;;1.70;;
151;SDS011;68;48.792;9.164;2022-09-09T16:11:43;5.23;;;1.77;;
151;SDS011;68;48.792;9.164;2022-09-09T16:14:11;2.40;;;1.60;;
151;SDS011;68;48.792;9.164;2022-09-09T16:16:37;2.53;;;1.83;;
151;SDS011;68;48.792;9.164;2022-09-09T16:19:07;2.17;;;1.60;;
151;SDS011;68;48.792;9.164;2022-09-09T16:21:36;2.17;;;1.53;;
151;SDS011;68;48.792;9.164;2022-09-09T16:24:05;7.20;;;2.03;;
151;SDS011;68;48.792;9.164;2022-09-09T16:26:35;6.00;;;1.70;;
151;SDS011;68;48.792;9.164;2022-09-09T16:29:03;1.93;;;1.80;;